createdAt,value
2018-06-10T00:00:13.494Z,88.60
2018-06-10T00:02:41.810Z,87.10
2018-06-10T00:05:10.131Z,88.30
2018-06-10T00:07:38.451Z,88.30
2018-06-10T00:10:06.755Z,89.10
2018-06-10T00:12:35.076Z,88.60
2018-06-10T00:15:03.367Z,89.60
2018-06-10T00:17:31.687Z,90.10
2018-06-10T00:20:00.026Z,90.40
2018-06-10T00:22:28.342Z,90.80
2018-06-10T00:24:56.638Z,90.90
2018-06-10T00:27:24.974Z,90.90
2018-06-10T00:29:53.266Z,91.00
2018-06-10T00:32:21.590Z,90.60
2018-06-10T00:34:49.994Z,90.10
2018-06-10T00:37:18.317Z,90.20
2018-06-10T00:39:46.607Z,90.20
2018-06-10T00:42:14.904Z,90.30
2018-06-10T00:44:43.243Z,90.20
2018-06-10T00:47:11.564Z,91.00
2018-06-10T00:49:39.879Z,91.20
2018-06-10T00:52:08.174Z,91.20
2018-06-10T00:54:36.502Z,91.00
2018-06-10T00:57:04.899Z,90.30
2018-06-10T00:59:33.222Z,90.30
2018-06-10T01:02:01.669Z,90.60
2018-06-10T01:04:30.008Z,90.80
2018-06-10T01:06:58.302Z,90.70
2018-06-10T01:09:26.623Z,90.90
2018-06-10T01:11:54.943Z,90.80
2018-06-10T01:14:23.235Z,90.60
2018-06-10T01:16:51.552Z,89.80
2018-06-10T01:19:19.831Z,89.90
2018-06-10T01:21:48.156Z,88.00
2018-06-10T01:24:16.446Z,88.00
2018-06-10T01:26:50.113Z,88.30
2018-06-10T01:29:19.094Z,88.70
2018-06-10T01:31:47.421Z,89.60
2018-06-10T01:34:15.710Z,89.90
2018-06-10T01:36:44.018Z,90.10
2018-06-10T01:39:12.298Z,90.30
2018-06-10T01:41:40.934Z,90.60
2018-06-10T01:44:09.218Z,90.60
2018-06-10T01:46:37.503Z,90.80
2018-06-10T01:49:05.826Z,90.90
2018-06-10T01:51:34.110Z,90.90
2018-06-10T01:54:02.439Z,91.00
2018-06-10T01:56:31.319Z,91.10
2018-06-10T01:58:59.639Z,91.20
2018-06-10T02:01:27.930Z,91.10
2018-06-10T02:03:56.275Z,91.00
2018-06-10T02:06:24.567Z,90.80
2018-06-10T02:08:53.142Z,91.00
2018-06-10T02:11:21.439Z,91.00
2018-06-10T02:13:49.733Z,91.10
2018-06-10T02:16:18.046Z,91.30
2018-06-10T02:18:46.384Z,91.40
2018-06-10T02:21:14.698Z,91.40
2018-06-10T02:23:43.018Z,91.40
2018-06-10T02:26:11.310Z,91.30
2018-06-10T02:28:39.634Z,91.60
2018-06-10T02:31:07.927Z,91.80
2018-06-10T02:33:36.262Z,91.80
2018-06-10T02:36:04.576Z,91.70
2018-06-10T02:38:32.855Z,91.70
2018-06-10T02:43:29.202Z,92.20
2018-06-10T02:45:57.535Z,91.90
2018-06-10T02:48:25.823Z,92.20
2018-06-10T02:50:54.146Z,92.00
2018-06-10T02:53:22.442Z,92.00
2018-06-10T02:55:50.769Z,92.10
2018-06-10T02:58:19.061Z,92.20
2018-06-10T03:00:47.383Z,92.10
2018-06-10T03:03:16.138Z,92.00
2018-06-10T03:05:44.427Z,92.00
2018-06-10T03:08:12.747Z,92.20
2018-06-10T03:10:41.117Z,92.10
2018-06-10T03:15:37.462Z,91.90
2018-06-10T03:18:05.789Z,92.00
2018-06-10T03:20:34.082Z,92.20
2018-06-10T03:23:02.402Z,92.00
2018-06-10T03:25:30.698Z,91.90
2018-06-10T03:27:59.032Z,91.80
2018-06-10T03:30:27.331Z,92.10
2018-06-10T03:32:55.662Z,92.20
2018-06-10T03:35:23.983Z,92.50
2018-06-10T03:37:52.267Z,92.20
2018-06-10T03:40:20.591Z,92.30
2018-06-10T03:42:48.879Z,92.40
2018-06-10T03:45:17.198Z,92.40
2018-06-10T03:47:45.519Z,92.50
2018-06-10T03:50:13.847Z,92.90
2018-06-10T03:52:42.142Z,92.60
2018-06-10T03:55:10.470Z,92.60
2018-06-10T03:57:38.758Z,92.60
2018-06-10T04:02:35.082Z,92.70
2018-06-10T04:05:03.532Z,92.80
2018-06-10T04:07:31.854Z,92.80
2018-06-10T04:10:00.150Z,92.80
2018-06-10T04:12:28.475Z,92.80
2018-06-10T04:14:56.770Z,92.80
2018-06-10T04:17:25.087Z,92.80
2018-06-10T04:19:53.378Z,92.70
2018-06-10T04:22:21.699Z,92.70
2018-06-10T04:24:49.994Z,92.80
2018-06-10T04:27:18.311Z,92.80
2018-06-10T04:29:46.608Z,92.90
2018-06-10T04:32:14.922Z,93.00
2018-06-10T04:34:43.214Z,93.10
2018-06-10T04:37:11.543Z,93.20
2018-06-10T04:39:39.834Z,93.20
2018-06-10T04:44:36.198Z,92.90
2018-06-10T04:47:04.554Z,93.00
2018-06-10T04:49:32.866Z,92.90
2018-06-10T04:52:01.192Z,92.90
2018-06-10T04:54:29.499Z,93.10
2018-06-10T04:56:57.831Z,93.00
2018-06-10T04:59:26.155Z,93.10
2018-06-10T05:01:54.603Z,93.00
2018-06-10T05:04:22.951Z,93.00
2018-06-10T05:06:51.271Z,93.00
2018-06-10T05:09:19.590Z,93.20
2018-06-10T05:11:47.882Z,93.10
2018-06-10T05:14:16.202Z,93.20
2018-06-10T05:16:44.538Z,93.00
2018-06-10T05:19:12.814Z,93.10
2018-06-10T05:21:41.147Z,93.20
2018-06-10T05:24:09.431Z,93.20
2018-06-10T05:26:37.753Z,93.10
2018-06-10T05:29:06.042Z,93.10
2018-06-10T05:31:34.353Z,93.00
2018-06-10T05:34:02.682Z,93.00
2018-06-10T05:36:31.001Z,93.00
2018-06-10T05:38:59.281Z,92.90
2018-06-10T05:41:27.615Z,92.60
2018-06-10T05:43:55.909Z,92.40
2018-06-10T05:46:24.223Z,92.70
2018-06-10T05:48:52.554Z,92.50
2018-06-10T05:51:20.930Z,92.80
2018-06-10T05:53:49.183Z,92.20
2018-06-10T05:56:17.479Z,92.50
2018-06-10T05:58:45.800Z,91.60
2018-06-10T06:01:14.100Z,91.80
2018-06-10T06:03:42.414Z,92.00
2018-06-10T06:06:10.711Z,92.10
2018-06-10T06:08:39.035Z,92.10
2018-06-10T06:11:07.353Z,92.10
2018-06-10T06:13:35.669Z,92.00
2018-06-10T06:16:03.982Z,92.10
2018-06-10T06:18:32.302Z,91.80
2018-06-10T06:21:00.591Z,91.80
2018-06-10T06:23:28.911Z,91.70
2018-06-10T06:25:57.196Z,91.60
2018-06-10T06:28:25.515Z,91.80
2018-06-10T06:30:53.794Z,91.80
2018-06-10T06:33:22.095Z,91.90
2018-06-10T06:35:50.406Z,91.90
2018-06-10T06:38:18.726Z,92.00
2018-06-10T06:40:47.046Z,91.70
2018-06-10T06:43:15.367Z,91.20
2018-06-10T06:45:43.682Z,91.40
2018-06-10T06:48:12.031Z,91.20
2018-06-10T06:50:40.358Z,91.30
2018-06-10T06:53:08.678Z,90.80
2018-06-10T06:55:36.975Z,90.30
2018-06-10T06:58:05.319Z,90.40
2018-06-10T07:00:33.615Z,89.80
2018-06-10T07:03:01.960Z,89.60
2018-06-10T07:05:30.258Z,90.00
2018-06-10T07:07:58.615Z,90.00
2018-06-10T07:10:26.903Z,90.00
2018-06-10T07:12:55.194Z,89.50
2018-06-10T07:15:23.515Z,87.90
2018-06-10T07:17:51.834Z,88.40
2018-06-10T07:20:20.154Z,88.40
2018-06-10T07:22:48.486Z,87.70
2018-06-10T07:25:16.795Z,87.90
2018-06-10T07:27:45.113Z,88.90
2018-06-10T07:30:13.411Z,88.50
2018-06-10T07:32:41.738Z,87.70
2018-06-10T07:35:10.066Z,87.20
2018-06-10T07:37:38.383Z,87.00
2018-06-10T07:40:06.859Z,88.90
2018-06-10T07:42:35.147Z,89.50
2018-06-10T07:45:03.466Z,89.10
2018-06-10T07:47:31.786Z,90.30
2018-06-10T07:50:00.107Z,89.90
2018-06-10T07:52:28.411Z,89.70
2018-06-10T07:54:56.743Z,90.70
2018-06-10T07:57:25.058Z,90.20
2018-06-10T07:59:53.371Z,89.40
2018-06-10T08:02:21.959Z,89.50
2018-06-10T08:04:50.250Z,89.90
2018-06-10T08:07:18.538Z,89.90
2018-06-10T08:09:46.868Z,90.00
2018-06-10T08:12:15.150Z,90.20
2018-06-10T08:14:43.474Z,90.30
2018-06-10T08:17:11.779Z,90.20
2018-06-10T08:19:40.110Z,90.20
2018-06-10T08:22:08.432Z,90.00
2018-06-10T08:24:36.738Z,89.80
2018-06-10T08:27:05.026Z,89.40
2018-06-10T08:29:33.356Z,87.90
2018-06-10T08:32:01.748Z,89.00
2018-06-10T08:34:30.011Z,89.80
2018-06-10T08:36:58.303Z,89.30
2018-06-10T08:39:26.646Z,88.40
2018-06-10T08:41:54.942Z,88.90
2018-06-10T08:44:23.275Z,88.10
2018-06-10T08:46:51.559Z,89.00
2018-06-10T08:49:19.874Z,89.70
2018-06-10T08:51:48.191Z,89.90
2018-06-10T08:54:16.514Z,89.80
2018-06-10T08:56:44.831Z,90.00
2018-06-10T08:59:13.174Z,90.20
2018-06-10T09:01:41.490Z,90.50
2018-06-10T09:04:09.790Z,90.40
2018-06-10T09:06:38.102Z,90.10
2018-06-10T09:09:09.179Z,89.60
2018-06-10T09:11:37.814Z,90.00
2018-06-10T09:14:06.107Z,90.10
2018-06-10T09:16:34.898Z,90.00
2018-06-10T09:19:03.207Z,89.90
2018-06-10T09:21:31.526Z,89.40
2018-06-10T09:23:59.848Z,89.70
2018-06-10T09:26:28.166Z,89.20
2018-06-10T09:28:56.489Z,87.40
2018-06-10T09:31:24.814Z,88.80
2018-06-10T09:33:53.123Z,88.60
2018-06-10T09:36:21.426Z,88.20
2018-06-10T09:38:49.746Z,88.80
2018-06-10T09:41:18.043Z,87.40
2018-06-10T09:43:46.371Z,86.60
2018-06-10T09:46:14.667Z,88.90
2018-06-10T09:48:43.018Z,89.90
2018-06-10T09:51:11.306Z,89.70
2018-06-10T09:53:39.634Z,90.10
2018-06-10T09:56:07.938Z,89.80
2018-06-10T09:58:36.270Z,89.60
2018-06-10T10:01:04.639Z,88.70
2018-06-10T10:03:32.970Z,89.20
2018-06-10T10:06:01.303Z,89.50
2018-06-10T10:08:29.602Z,88.80
2018-06-10T10:10:58.072Z,87.80
2018-06-10T10:13:26.374Z,86.70
2018-06-10T10:15:54.717Z,85.50
2018-06-10T10:18:23.006Z,85.20
2018-06-10T10:20:51.330Z,82.50
2018-06-10T10:23:19.662Z,83.80
2018-06-10T10:25:47.979Z,84.60
2018-06-10T10:28:16.274Z,84.70
2018-06-10T10:30:44.582Z,84.20
2018-06-10T10:33:12.906Z,84.20
2018-06-10T10:35:41.235Z,82.70
2018-06-10T10:38:09.523Z,84.60
2018-06-10T10:40:37.858Z,82.40
2018-06-10T10:43:06.178Z,83.80
2018-06-10T10:45:34.471Z,85.60
2018-06-10T10:48:02.846Z,84.30
2018-06-10T10:50:31.137Z,84.30
2018-06-10T10:52:59.467Z,84.60
2018-06-10T10:55:27.755Z,82.70
2018-06-10T10:57:56.075Z,80.60
2018-06-10T11:00:24.366Z,79.50
2018-06-10T11:02:52.699Z,82.30
2018-06-10T11:05:21.022Z,81.40
2018-06-10T11:07:49.322Z,77.90
2018-06-10T11:10:17.653Z,79.80
2018-06-10T11:12:45.939Z,80.60
2018-06-10T11:15:14.271Z,80.90
2018-06-10T11:17:42.613Z,80.40
2018-06-10T11:20:10.931Z,78.80
2018-06-10T11:22:39.318Z,79.60
2018-06-10T11:25:07.612Z,80.90
2018-06-10T11:27:35.939Z,80.30
2018-06-10T11:30:04.240Z,81.70
2018-06-10T11:32:32.559Z,81.90
2018-06-10T11:35:00.862Z,79.60
2018-06-10T11:37:29.182Z,80.10
2018-06-10T11:39:57.482Z,74.40
2018-06-10T11:42:25.864Z,73.90
2018-06-10T11:44:54.135Z,75.30
2018-06-10T11:47:22.503Z,74.10
2018-06-10T11:49:50.858Z,74.50
2018-06-10T11:52:19.154Z,70.50
2018-06-10T11:54:47.478Z,74.40
2018-06-10T11:57:15.774Z,73.10
2018-06-10T11:59:44.128Z,70.40
2018-06-10T12:02:12.428Z,69.30
2018-06-10T12:04:40.758Z,72.60
2018-06-10T12:07:09.072Z,73.40
2018-06-10T12:09:37.414Z,73.40
2018-06-10T12:12:05.708Z,72.30
2018-06-10T12:14:34.023Z,73.20
2018-06-10T12:17:02.322Z,74.60
2018-06-10T12:19:30.622Z,75.20
2018-06-10T12:21:58.944Z,73.10
2018-06-10T12:24:27.244Z,72.90
2018-06-10T12:26:55.567Z,72.50
2018-06-10T12:29:23.895Z,73.40
2018-06-10T12:31:52.174Z,74.00
2018-06-10T12:34:20.502Z,73.40
2018-06-10T12:36:48.838Z,74.70
2018-06-10T12:39:17.183Z,74.50
2018-06-10T12:41:45.495Z,75.90
2018-06-10T12:44:13.814Z,74.10
2018-06-10T12:46:42.115Z,74.30
2018-06-10T12:49:10.525Z,75.00
2018-06-10T12:51:38.747Z,74.50
2018-06-10T12:54:07.059Z,72.80
2018-06-10T12:56:35.354Z,72.90
2018-06-10T12:59:03.695Z,73.90
2018-06-10T13:01:32.016Z,71.10
2018-06-10T13:04:00.320Z,72.90
2018-06-10T13:06:28.639Z,72.90
2018-06-10T13:08:56.935Z,72.40
2018-06-10T13:11:25.254Z,72.10
2018-06-10T13:13:53.542Z,73.00
2018-06-10T13:16:22.199Z,71.20
2018-06-10T13:18:50.490Z,73.90
2018-06-10T13:21:18.779Z,70.60
2018-06-10T13:23:47.090Z,71.60
2018-06-10T13:26:15.389Z,70.50
2018-06-10T13:28:43.715Z,70.40
2018-06-10T13:31:12.162Z,72.50
2018-06-10T13:33:40.484Z,71.70
2018-06-10T13:36:08.804Z,72.80
2018-06-10T13:38:37.130Z,72.50
2018-06-10T13:41:05.475Z,73.40
2018-06-10T13:43:33.799Z,69.50
2018-06-10T13:46:02.132Z,71.80
2018-06-10T13:48:30.470Z,71.90
2018-06-10T13:50:58.763Z,71.30
2018-06-10T13:53:27.083Z,69.60
2018-06-10T13:55:55.407Z,70.50
2018-06-10T13:58:24.294Z,69.20
2018-06-10T14:00:52.638Z,71.30
2018-06-10T14:03:20.934Z,70.90
2018-06-10T14:05:49.227Z,70.30
2018-06-10T14:08:17.542Z,68.50
2018-06-10T14:10:45.826Z,69.40
2018-06-10T14:13:14.145Z,68.90
2018-06-10T14:15:42.438Z,68.00
2018-06-10T14:18:10.767Z,66.90
2018-06-10T14:20:39.066Z,66.30
2018-06-10T14:23:07.356Z,65.80
2018-06-10T14:25:35.683Z,66.10
2018-06-10T14:28:03.972Z,65.90
2018-06-10T14:30:32.298Z,66.20
2018-06-10T14:33:00.590Z,67.20
2018-06-10T14:35:28.887Z,65.70
2018-06-10T14:37:57.277Z,68.00
2018-06-10T14:40:25.515Z,64.30
2018-06-10T14:42:53.823Z,65.10
2018-06-10T14:45:22.134Z,64.50
2018-06-10T14:47:50.525Z,66.60
2018-06-10T14:50:18.806Z,64.50
2018-06-10T14:52:47.102Z,66.50
2018-06-10T14:55:15.427Z,64.90
2018-06-10T14:57:43.717Z,68.30
2018-06-10T15:00:12.062Z,67.30
2018-06-10T15:02:40.350Z,67.20
2018-06-10T15:05:08.679Z,65.60
2018-06-10T15:07:37.002Z,67.70
2018-06-10T15:10:05.310Z,65.90
2018-06-10T15:12:33.639Z,64.80
2018-06-10T15:15:01.931Z,66.00
2018-06-10T15:17:30.453Z,66.90
2018-06-10T15:19:58.746Z,68.10
2018-06-10T15:22:27.084Z,68.50
2018-06-10T15:24:55.374Z,67.40
2018-06-10T15:27:23.710Z,65.00
2018-06-10T15:29:52.023Z,64.80
2018-06-10T15:32:20.348Z,64.40
2018-06-10T15:34:48.671Z,62.80
2018-06-10T15:37:16.994Z,63.40
2018-06-10T15:39:45.326Z,62.90
2018-06-10T15:42:13.651Z,64.60
2018-06-10T15:44:41.975Z,63.30
2018-06-10T15:47:10.303Z,63.80
2018-06-10T15:49:38.656Z,62.40
2018-06-10T15:52:06.966Z,64.00
2018-06-10T15:54:35.302Z,63.70
2018-06-10T15:57:03.607Z,66.00
2018-06-10T15:59:32.610Z,65.10
2018-06-10T16:02:00.963Z,63.70
2018-06-10T16:04:29.359Z,64.80
2018-06-10T16:06:57.686Z,65.10
2018-06-10T16:09:25.970Z,65.10
2018-06-10T16:11:54.302Z,64.80
2018-06-10T16:14:22.595Z,64.10
2018-06-10T16:16:50.943Z,63.90
2018-06-10T16:19:19.240Z,65.10
2018-06-10T16:21:47.551Z,64.00
2018-06-10T16:24:15.875Z,66.10
2018-06-10T16:26:44.176Z,65.10
2018-06-10T16:29:12.495Z,65.20
2018-06-10T16:31:40.791Z,65.40
2018-06-10T16:34:09.126Z,66.30
2018-06-10T16:36:37.395Z,67.90
2018-06-10T16:39:08.342Z,65.40
2018-06-10T16:41:36.695Z,65.50
2018-06-10T16:44:05.120Z,65.20
2018-06-10T16:46:33.406Z,66.50
2018-06-10T16:49:01.751Z,67.40
2018-06-10T16:51:30.059Z,67.10
2018-06-10T16:53:58.406Z,65.90
2018-06-10T16:56:26.728Z,67.20
2018-06-10T16:58:55.014Z,65.20
2018-06-10T17:01:23.375Z,65.50
2018-06-10T17:03:51.698Z,63.70
2018-06-10T17:08:48.051Z,64.70
2018-06-10T17:11:16.346Z,66.00
2018-06-10T17:13:44.650Z,66.20
2018-06-10T17:16:13.039Z,65.10
2018-06-10T17:18:41.278Z,64.10
2018-06-10T17:21:09.620Z,63.20
2018-06-10T17:23:37.906Z,62.70
2018-06-10T17:26:06.230Z,63.80
2018-06-10T17:28:34.532Z,63.90
2018-06-10T17:31:02.850Z,63.70
2018-06-10T17:33:31.167Z,63.60
2018-06-10T17:35:59.497Z,64.80
2018-06-10T17:38:27.818Z,64.50
2018-06-10T17:40:56.110Z,64.90
2018-06-10T17:43:24.475Z,65.60
2018-06-10T17:45:52.774Z,64.60
2018-06-10T17:48:21.129Z,65.70
2018-06-10T17:50:49.395Z,66.10
2018-06-10T17:53:17.718Z,66.40
2018-06-10T17:55:46.014Z,66.90
2018-06-10T17:58:14.343Z,66.00
2018-06-10T18:00:42.709Z,65.50
2018-06-10T18:03:11.010Z,65.40
2018-06-10T18:05:39.303Z,65.90
2018-06-10T18:08:08.629Z,66.80
2018-06-10T18:10:37.845Z,67.30
2018-06-10T18:13:07.899Z,66.70
2018-06-10T18:15:36.447Z,67.90
2018-06-10T18:18:04.783Z,66.00
2018-06-10T18:20:33.126Z,66.00
2018-06-10T18:23:01.455Z,66.20
2018-06-10T18:25:30.331Z,65.90
2018-06-10T18:27:58.621Z,65.60
2018-06-10T18:30:26.937Z,66.30
2018-06-10T18:32:55.239Z,66.10
2018-06-10T18:36:01.632Z,67.00
2018-06-10T18:38:36.247Z,69.80
2018-06-10T18:41:11.014Z,68.10
2018-06-10T18:45:16.338Z,67.80
2018-06-10T18:47:50.178Z,70.60
2018-06-10T18:50:25.031Z,69.00
2018-06-10T18:55:34.490Z,68.30
2018-06-10T18:58:09.186Z,68.10
2018-06-10T19:00:44.510Z,67.90
2018-06-10T19:03:19.304Z,68.20
2018-06-10T19:05:54.346Z,68.60
2018-06-10T19:08:29.358Z,68.60
2018-06-10T19:11:46.706Z,68.40
2018-06-10T19:14:21.616Z,69.10
2018-06-10T19:16:56.515Z,69.40
2018-06-10T19:19:31.418Z,69.60
2018-06-10T19:22:06.342Z,70.40
2018-06-10T19:24:41.332Z,70.20
2018-06-10T19:27:16.366Z,70.10
2018-06-10T19:29:51.382Z,69.60
2018-06-10T19:32:26.269Z,70.00
2018-06-10T19:35:01.210Z,70.00
2018-06-10T19:37:36.143Z,70.00
2018-06-10T19:40:11.128Z,70.30
2018-06-10T19:45:05.048Z,70.80
2018-06-10T19:47:33.995Z,72.80
2018-06-10T19:50:38.255Z,72.90
2018-06-10T19:53:08.645Z,73.20
2018-06-10T19:55:39.003Z,72.80
2018-06-10T19:58:09.399Z,73.00
2018-06-10T20:00:39.963Z,73.60
2018-06-10T20:03:10.378Z,73.30
2018-06-10T20:05:40.735Z,76.30
2018-06-10T20:08:11.127Z,74.90
2018-06-10T20:10:41.503Z,75.30
2018-06-10T20:13:11.354Z,75.40
2018-06-10T20:15:41.215Z,75.80
2018-06-10T20:18:11.068Z,77.40
2018-06-10T20:20:40.911Z,78.50
2018-06-10T20:23:10.749Z,78.80
2018-06-10T20:25:40.602Z,78.70
2018-06-10T20:28:10.430Z,78.60
2018-06-10T20:30:40.911Z,78.70
2018-06-10T20:33:11.386Z,79.30
2018-06-10T20:35:41.816Z,79.60
2018-06-10T20:38:12.362Z,80.20
2018-06-10T20:40:42.757Z,80.30
2018-06-10T20:43:13.118Z,80.90
2018-06-10T20:45:43.517Z,79.60
2018-06-10T20:48:13.902Z,80.60
2018-06-10T20:50:44.295Z,80.00
2018-06-10T20:53:14.694Z,80.90
2018-06-10T20:55:45.078Z,80.40
2018-06-10T20:58:15.468Z,80.30
2018-06-10T21:00:45.897Z,80.50
2018-06-10T21:03:16.299Z,81.10
2018-06-10T21:05:46.687Z,80.70
2018-06-10T21:08:17.102Z,81.30
2018-06-10T21:10:47.659Z,81.70
2018-06-10T21:13:18.043Z,82.30
2018-06-10T21:15:48.514Z,82.20
2018-06-10T21:18:18.873Z,81.80
2018-06-10T21:20:49.247Z,81.90
2018-06-10T21:23:19.634Z,82.00
2018-06-10T21:25:50.031Z,82.80
2018-06-10T21:28:20.426Z,82.50
2018-06-10T21:30:50.794Z,83.10
2018-06-10T21:33:21.195Z,82.90
2018-06-10T21:35:51.581Z,83.90
2018-06-10T21:38:22.005Z,84.40
2018-06-10T21:40:52.386Z,84.70
2018-06-10T21:43:23.054Z,84.10
2018-06-10T21:45:53.475Z,85.40
2018-06-10T21:48:23.822Z,83.90
2018-06-10T21:50:54.498Z,84.30
2018-06-10T21:53:25.155Z,83.60
2018-06-10T21:55:55.853Z,84.10
2018-06-10T21:58:26.509Z,83.80
2018-06-10T22:00:57.723Z,83.60
2018-06-10T22:03:28.371Z,84.30
2018-06-10T22:05:59.059Z,84.50
2018-06-10T22:08:29.749Z,85.00
2018-06-10T22:11:00.375Z,85.50
2018-06-10T22:13:31.036Z,85.80
2018-06-10T22:16:01.457Z,85.80
2018-06-10T22:18:32.106Z,86.00
2018-06-10T22:21:02.503Z,86.80
2018-06-10T22:23:32.882Z,85.90
2018-06-10T22:26:03.571Z,86.00
2018-06-10T22:28:34.455Z,86.10
2018-06-10T22:31:05.116Z,86.20
2018-06-10T22:33:35.786Z,86.30
2018-06-10T22:36:06.144Z,86.50
2018-06-10T22:38:35.358Z,87.00
2018-06-10T22:41:05.722Z,86.70
2018-06-10T22:43:36.110Z,86.80
2018-06-10T22:46:06.782Z,86.20
2018-06-10T22:48:37.186Z,86.70
2018-06-10T22:51:07.838Z,86.90
2018-06-10T22:54:17.915Z,87.30
2018-06-10T22:56:48.598Z,87.50
2018-06-10T22:59:19.258Z,88.30
2018-06-10T23:01:49.660Z,88.30
2018-06-10T23:04:20.311Z,87.60
2018-06-10T23:06:50.694Z,87.40
2018-06-10T23:09:21.355Z,87.70
2018-06-10T23:11:52.035Z,87.90
2018-06-10T23:14:22.387Z,88.80
2018-06-10T23:16:53.071Z,87.90
2018-06-10T23:19:23.730Z,87.80
2018-06-10T23:21:54.430Z,88.20
2018-06-10T23:24:24.790Z,88.20
2018-06-10T23:26:55.484Z,88.10
2018-06-10T23:29:25.847Z,88.50
2018-06-10T23:31:56.543Z,88.40
2018-06-10T23:34:27.202Z,88.50
2018-06-10T23:36:57.898Z,88.80
2018-06-10T23:39:28.549Z,89.30
2018-06-10T23:41:58.932Z,89.50
2018-06-10T23:44:29.280Z,89.90
2018-06-10T23:46:59.863Z,90.00
2018-06-10T23:49:30.269Z,89.80
2018-06-10T23:52:00.649Z,90.00
2018-06-10T23:54:31.020Z,90.30
2018-06-10T23:57:01.410Z,90.40
2018-06-10T23:59:31.779Z,90.50
